Terminal Aerodrome Forecast
Issued by NWS Melbourne, FL

Home | Current Version | Previous Version | Text Only | Print | Product List | Glossary On
Versions: 1 2 3 4 5 6 7 8 9 10 11 12 13 14 15 16 17 18 19 20 21 22 23 24 25 26 27 28 29 30 31 32 33 34
531
FTUS42 KMLB 050538
TAFMCO
TAF
KMCO 050538Z 0506/0606 28010KT P6SM SKC
     FM051400 30017G23KT P6SM SKC
     FM052330 28013KT P6SM SKC=

USA.gov is the U.S. government's official web portal to all federal, state and local government web resources and services.